Terminal Aerodrome Forecast
Issued by NWS

Home | Current Version | Previous Version | Text Only | Print | Product List | Glossary Off
Versions: 1 2 3 4 5 6 7 8 9 10 11 12 13 14 15 16 17

000
FTUS43 KMPX 260400 AAA
TAFAXN
TAF AMD
KAXN 260407Z 2604/2624 29007KT P6SM BKN035
     FM261000 32006KT P6SM SCT200
     FM262300 35007KT P6SM BKN100=

USA.gov is the U.S. government's official web portal to all federal, state and local government web resources and services.